createdAt,value
2023-04-25T00:00:56.406Z,4.90
2023-04-25T00:01:56.482Z,4.40
2023-04-25T00:02:56.477Z,4.40
2023-04-25T00:03:56.867Z,4.90
2023-04-25T00:04:56.650Z,4.70
2023-04-25T00:05:56.420Z,3.90
2023-04-25T00:06:56.402Z,5.20
2023-04-25T00:07:56.298Z,4.60
2023-04-25T00:08:56.315Z,5.00
2023-04-25T00:09:56.325Z,4.60
2023-04-25T00:10:56.267Z,5.10
2023-04-25T00:11:56.241Z,4.70
2023-04-25T00:12:56.309Z,4.90
2023-04-25T00:13:56.345Z,4.70
2023-04-25T00:14:56.325Z,4.80
2023-04-25T00:15:56.383Z,4.70
2023-04-25T00:16:56.251Z,4.90
2023-04-25T00:17:56.256Z,4.40
2023-04-25T00:18:56.209Z,4.60
2023-04-25T00:19:56.215Z,4.80
2023-04-25T00:20:56.221Z,4.90
2023-04-25T00:21:56.196Z,4.30
2023-04-25T00:22:56.166Z,4.50
2023-04-25T00:23:56.154Z,4.50
2023-04-25T00:24:56.168Z,4.30
2023-04-25T00:25:56.144Z,4.70
2023-04-25T00:26:56.234Z,4.50
2023-04-25T00:27:56.169Z,4.50
2023-04-25T00:28:56.116Z,3.90
2023-04-25T00:29:56.098Z,4.30
2023-04-25T00:30:56.166Z,4.40
2023-04-25T00:31:56.119Z,4.30
2023-04-25T00:32:56.106Z,4.30
2023-04-25T00:33:56.100Z,4.70
2023-04-25T00:34:56.037Z,4.10
2023-04-25T00:35:56.025Z,4.10
2023-04-25T00:36:56.029Z,4.10
2023-04-25T00:37:56.019Z,4.40
2023-04-25T00:38:56.145Z,4.20
2023-04-25T00:39:56.002Z,4.10
2023-04-25T00:40:56.013Z,4.20
2023-04-25T00:41:56.011Z,4.20
2023-04-25T00:42:55.940Z,4.00
2023-04-25T00:43:55.959Z,4.30
2023-04-25T00:44:56.059Z,4.30
2023-04-25T00:45:55.944Z,4.50
2023-04-25T00:46:56.029Z,4.70
2023-04-25T00:47:55.986Z,4.20
2023-04-25T00:48:55.890Z,4.40
2023-04-25T00:49:55.905Z,4.30
2023-04-25T00:50:55.908Z,4.30
2023-04-25T00:51:55.896Z,4.30
2023-04-25T00:52:55.896Z,4.20
2023-04-25T00:53:55.906Z,4.20
2023-04-25T00:54:55.951Z,4.30
2023-04-25T00:55:56.027Z,4.40
2023-04-25T00:56:55.835Z,3.80
2023-04-25T00:57:55.855Z,4.20
2023-04-25T00:58:55.827Z,4.40
2023-04-25T00:59:55.846Z,4.20
2023-04-25T01:00:55.799Z,4.00
2023-04-25T01:01:55.827Z,4.30
2023-04-25T01:02:55.945Z,4.10
2023-04-25T01:03:56.222Z,4.10
2023-04-25T01:04:55.798Z,4.20
2023-04-25T01:05:55.690Z,4.10
2023-04-25T01:06:55.683Z,4.40
2023-04-25T01:07:55.709Z,4.40
2023-04-25T01:08:55.711Z,4.00
2023-04-25T01:09:55.701Z,4.10
2023-04-25T01:10:55.723Z,4.40
2023-04-25T01:11:55.666Z,3.60
2023-04-25T01:12:55.775Z,3.80
2023-04-25T01:13:55.708Z,3.80
2023-04-25T01:14:55.711Z,3.50
2023-04-25T01:15:55.610Z,3.60
2023-04-25T01:16:55.727Z,4.10
2023-04-25T01:17:55.592Z,3.90
2023-04-25T01:18:55.569Z,4.10
2023-04-25T01:19:55.591Z,4.10
2023-04-25T01:20:55.605Z,3.80
2023-04-25T01:21:55.559Z,3.80
2023-04-25T01:22:55.584Z,3.80
2023-04-25T01:23:55.576Z,4.00
2023-04-25T01:24:55.582Z,3.40
2023-04-25T01:25:55.582Z,3.60
2023-04-25T01:26:55.545Z,3.50
2023-04-25T01:27:55.488Z,4.00
2023-04-25T01:28:55.634Z,3.90
2023-04-25T01:29:55.442Z,3.40
2023-04-25T01:30:55.624Z,3.90
2023-04-25T01:31:55.556Z,3.70
2023-04-25T01:32:55.571Z,4.10
2023-04-25T01:33:55.436Z,3.70
2023-04-25T01:34:55.469Z,3.50
2023-04-25T01:35:55.424Z,4.00
2023-04-25T01:36:55.380Z,3.70
2023-04-25T01:37:55.413Z,3.40
2023-04-25T01:38:55.421Z,3.70
2023-04-25T01:39:55.386Z,3.70
2023-04-25T01:40:55.486Z,3.60
2023-04-25T01:41:57.304Z,3.50
2023-04-25T01:42:55.331Z,3.50
2023-04-25T01:43:55.403Z,3.40
2023-04-25T01:44:55.384Z,3.50
2023-04-25T01:45:55.376Z,3.50
2023-04-25T01:46:55.302Z,3.30
2023-04-25T01:47:55.382Z,3.60
2023-04-25T01:48:55.344Z,3.80
2023-04-25T01:49:55.352Z,3.90
2023-04-25T01:50:55.275Z,3.60
2023-04-25T01:51:55.247Z,3.60
2023-04-25T01:52:55.235Z,3.80
2023-04-25T01:53:55.247Z,3.50
2023-04-25T01:54:55.207Z,3.80
2023-04-25T01:55:55.521Z,3.70
2023-04-25T01:56:55.210Z,3.70
2023-04-25T01:57:55.268Z,3.40
2023-04-25T01:58:55.201Z,3.70
2023-04-25T01:59:55.294Z,3.70
2023-04-25T02:00:55.130Z,3.70
2023-04-25T02:01:55.433Z,3.90
2023-04-25T02:02:55.338Z,3.50
2023-04-25T02:03:55.685Z,3.50
2023-04-25T02:04:55.222Z,3.10
2023-04-25T02:05:55.206Z,3.60
2023-04-25T02:06:55.086Z,3.50
2023-04-25T02:07:55.316Z,3.50
2023-04-25T02:08:55.144Z,3.70
2023-04-25T02:09:55.066Z,3.30
2023-04-25T02:10:55.115Z,3.60
2023-04-25T02:11:55.042Z,3.40
2023-04-25T02:12:55.065Z,3.60
2023-04-25T02:13:55.100Z,3.30
2023-04-25T02:14:55.038Z,3.30
2023-04-25T02:15:55.056Z,3.50
2023-04-25T02:16:55.072Z,3.40
2023-04-25T02:17:55.016Z,3.70
2023-04-25T02:18:55.050Z,3.70
2023-04-25T02:19:54.996Z,3.70
2023-04-25T02:20:54.960Z,3.60
2023-04-25T02:21:55.030Z,3.60
2023-04-25T02:22:54.918Z,4.00
2023-04-25T02:23:54.922Z,3.10
2023-04-25T02:24:54.971Z,3.50
2023-04-25T02:25:54.927Z,3.40
2023-04-25T02:26:54.946Z,3.40
2023-04-25T02:27:54.907Z,3.80
2023-04-25T02:28:54.949Z,3.40
2023-04-25T02:29:54.925Z,4.10
2023-04-25T02:30:54.895Z,3.50
2023-04-25T02:31:54.936Z,4.10
2023-04-25T02:32:54.893Z,3.20
2023-04-25T02:33:54.923Z,3.90
2023-04-25T02:34:54.782Z,3.60
2023-04-25T02:35:54.781Z,3.00
2023-04-25T02:36:54.873Z,3.80
2023-04-25T02:37:54.751Z,4.10
2023-04-25T02:38:54.763Z,3.80
2023-04-25T02:39:54.845Z,3.90
2023-04-25T02:40:54.747Z,3.50
2023-04-25T02:41:54.731Z,4.00
2023-04-25T02:42:54.711Z,3.70
2023-04-25T02:43:54.890Z,3.90
2023-04-25T02:44:54.727Z,4.30
2023-04-25T02:45:54.975Z,3.30
2023-04-25T02:46:54.755Z,4.20
2023-04-25T02:47:54.954Z,4.30
2023-04-25T02:48:54.799Z,3.50
2023-04-25T02:49:54.638Z,4.10
2023-04-25T02:50:54.694Z,4.10
2023-04-25T02:51:54.609Z,4.30
2023-04-25T02:52:54.823Z,4.10
2023-04-25T02:53:54.635Z,3.80
2023-04-25T02:54:54.645Z,4.20
2023-04-25T02:55:54.583Z,4.10
2023-04-25T02:56:54.662Z,3.90
2023-04-25T02:57:54.661Z,4.00
2023-04-25T02:58:54.561Z,4.30
2023-04-25T02:59:54.546Z,4.20
2023-04-25T03:00:54.628Z,4.00
2023-04-25T03:01:54.510Z,4.30
2023-04-25T03:02:54.727Z,4.30
2023-04-25T03:03:54.992Z,4.60
2023-04-25T03:04:54.667Z,4.20
2023-04-25T03:05:54.508Z,4.70
2023-04-25T03:06:54.509Z,4.60
2023-04-25T03:07:54.489Z,4.10
2023-04-25T03:08:54.447Z,4.40
2023-04-25T03:09:54.490Z,4.40
2023-04-25T03:10:54.507Z,4.30
2023-04-25T03:11:54.460Z,5.20
2023-04-25T03:12:54.464Z,4.60
2023-04-25T03:13:54.366Z,4.80
2023-04-25T03:14:54.455Z,4.50
2023-04-25T03:15:54.584Z,4.40
2023-04-25T03:16:54.463Z,4.40
2023-04-25T03:17:54.378Z,4.50
2023-04-25T03:18:54.376Z,4.30
2023-04-25T03:19:54.428Z,4.90
2023-04-25T03:20:54.328Z,4.00
2023-04-25T03:21:54.416Z,4.50
2023-04-25T03:22:54.336Z,4.50
2023-04-25T03:23:54.336Z,5.10
2023-04-25T03:24:54.290Z,4.50
2023-04-25T03:25:54.266Z,4.70
2023-04-25T03:26:54.295Z,4.20
2023-04-25T03:27:54.312Z,4.60
2023-04-25T03:28:54.282Z,4.70
2023-04-25T03:29:54.262Z,4.60
2023-04-25T03:30:54.241Z,4.70
2023-04-25T03:31:54.216Z,4.40
2023-04-25T03:32:54.537Z,4.20
2023-04-25T03:33:54.190Z,4.40
2023-04-25T03:34:54.204Z,4.70
2023-04-25T03:35:54.188Z,4.90
2023-04-25T03:36:54.219Z,5.30
2023-04-25T03:37:54.220Z,4.80
2023-04-25T03:38:54.131Z,4.80
2023-04-25T03:39:54.216Z,4.40
2023-04-25T03:40:54.120Z,4.90
2023-04-25T03:41:54.117Z,4.80
2023-04-25T03:42:54.097Z,5.10
2023-04-25T03:43:54.090Z,5.00
2023-04-25T03:44:54.130Z,4.70
2023-04-25T03:45:54.098Z,4.80
2023-04-25T03:46:54.051Z,5.00
2023-04-25T03:47:54.058Z,4.90
2023-04-25T03:48:54.030Z,4.50
2023-04-25T03:49:54.038Z,4.80
2023-04-25T03:50:54.025Z,5.10
2023-04-25T03:51:54.106Z,4.30
2023-04-25T03:52:54.120Z,5.10
2023-04-25T03:53:54.015Z,4.80
2023-04-25T03:54:53.994Z,5.10
2023-04-25T03:55:54.008Z,4.40
2023-04-25T03:56:53.938Z,4.70
2023-04-25T03:57:53.942Z,4.40
2023-04-25T03:58:54.029Z,4.70
2023-04-25T03:59:53.961Z,4.60
2023-04-25T04:00:53.930Z,4.60
2023-04-25T04:01:53.861Z,4.80
2023-04-25T04:02:53.997Z,5.90
2023-04-25T04:03:54.521Z,4.90
2023-04-25T04:04:54.015Z,5.00
2023-04-25T04:05:54.010Z,5.40
2023-04-25T04:06:53.836Z,5.10
2023-04-25T04:07:53.849Z,5.10
2023-04-25T04:08:53.794Z,5.10
2023-04-25T04:09:53.834Z,4.70
2023-04-25T04:10:53.809Z,4.70
2023-04-25T04:11:53.813Z,5.40
2023-04-25T04:12:53.767Z,5.40
2023-04-25T04:13:53.776Z,5.70
2023-04-25T04:14:53.720Z,5.10
2023-04-25T04:15:53.826Z,5.60
2023-04-25T04:16:53.761Z,5.20
2023-04-25T04:17:53.802Z,5.00
2023-04-25T04:18:53.748Z,5.20
2023-04-25T04:19:53.712Z,5.00
2023-04-25T04:20:53.684Z,5.50
2023-04-25T04:21:53.712Z,5.50
2023-04-25T04:22:53.710Z,5.60
2023-04-25T04:23:53.659Z,5.40
2023-04-25T04:24:53.653Z,5.00
2023-04-25T04:25:53.662Z,5.30
2023-04-25T04:26:53.674Z,5.40
2023-04-25T04:27:53.601Z,5.40
2023-04-25T04:28:53.613Z,5.50
2023-04-25T04:29:53.625Z,5.40
2023-04-25T04:30:53.640Z,4.80
2023-04-25T04:31:53.919Z,4.90
2023-04-25T04:32:53.631Z,4.60
2023-04-25T04:33:53.752Z,4.40
2023-04-25T04:34:53.565Z,4.50
2023-04-25T04:35:53.550Z,4.30
2023-04-25T04:36:53.528Z,4.60
2023-04-25T04:37:53.500Z,4.30
2023-04-25T04:38:53.507Z,4.50
2023-04-25T04:39:53.502Z,3.40
2023-04-25T04:40:53.518Z,3.80
2023-04-25T04:41:53.514Z,4.20
2023-04-25T04:42:53.454Z,3.90
2023-04-25T04:43:53.473Z,4.10
2023-04-25T04:44:53.468Z,3.60
2023-04-25T04:45:53.439Z,3.90
2023-04-25T04:46:53.475Z,3.50
2023-04-25T04:47:53.543Z,3.60
2023-04-25T04:48:53.463Z,3.90
2023-04-25T04:49:53.420Z,4.00
2023-04-25T04:50:53.361Z,4.50
2023-04-25T04:51:53.439Z,4.00
2023-04-25T04:52:53.392Z,3.80
2023-04-25T04:53:53.677Z,3.60
2023-04-25T04:54:53.356Z,4.30
2023-04-25T04:55:53.382Z,4.00
2023-04-25T04:56:53.322Z,4.10
2023-04-25T04:57:53.302Z,4.30
2023-04-25T04:58:53.331Z,4.20
2023-04-25T04:59:53.295Z,3.70
2023-04-25T05:00:53.331Z,3.90
2023-04-25T05:01:53.332Z,4.20
2023-04-25T05:02:53.420Z,4.10
2023-04-25T05:03:53.583Z,4.40
2023-04-25T05:04:53.333Z,3.70
2023-04-25T05:05:53.314Z,3.80
2023-04-25T05:06:53.199Z,4.00
2023-04-25T05:07:53.203Z,3.70
2023-04-25T05:08:53.203Z,4.30
2023-04-25T05:09:53.191Z,3.80
2023-04-25T05:10:53.174Z,3.60
2023-04-25T05:11:53.151Z,4.00
2023-04-25T05:12:53.138Z,4.00
2023-04-25T05:13:53.675Z,4.30
2023-04-25T05:14:53.174Z,4.10
2023-04-25T05:15:53.184Z,4.50
2023-04-25T05:16:53.880Z,4.20
2023-04-25T05:17:53.136Z,3.70
2023-04-25T05:18:53.146Z,3.80
2023-04-25T05:19:53.104Z,3.60
2023-04-25T05:20:53.061Z,4.40
2023-04-25T05:21:53.054Z,3.70
2023-04-25T05:22:53.031Z,4.10
2023-04-25T05:23:53.377Z,4.10
2023-04-25T05:24:55.188Z,3.50
2023-04-25T05:25:53.085Z,4.20
2023-04-25T05:26:52.992Z,3.90
2023-04-25T05:27:52.994Z,3.80
2023-04-25T05:28:52.998Z,4.10
2023-04-25T05:29:52.977Z,3.60
2023-04-25T05:30:52.962Z,3.90
2023-04-25T05:31:53.022Z,3.90
2023-04-25T05:32:53.005Z,3.40
2023-04-25T05:33:53.053Z,3.30
2023-04-25T05:34:52.970Z,3.40
2023-04-25T05:35:52.899Z,3.30
2023-04-25T05:36:52.916Z,3.50
2023-04-25T05:37:52.915Z,3.80
2023-04-25T05:38:52.899Z,3.60
2023-04-25T05:39:52.892Z,3.90
2023-04-25T05:40:52.844Z,3.60
2023-04-25T05:41:52.857Z,3.90
2023-04-25T05:42:52.830Z,3.30
2023-04-25T05:43:54.191Z,3.40
2023-04-25T05:44:52.909Z,3.00
2023-04-25T05:45:52.964Z,3.40
2023-04-25T05:46:52.776Z,3.20
2023-04-25T05:47:52.863Z,3.50
2023-04-25T05:48:52.771Z,3.40
2023-04-25T05:49:52.760Z,3.00
2023-04-25T05:50:52.744Z,3.10
2023-04-25T05:51:52.804Z,3.10
2023-04-25T05:52:52.733Z,3.30
2023-04-25T05:53:53.153Z,3.40
2023-04-25T05:54:53.299Z,3.50
2023-04-25T05:55:52.689Z,3.00
2023-04-25T05:56:52.692Z,3.20
2023-04-25T05:57:52.683Z,2.90
2023-04-25T05:58:52.665Z,2.70
2023-04-25T05:59:52.672Z,2.70
2023-04-25T06:00:52.687Z,2.80
2023-04-25T06:01:52.687Z,3.30
2023-04-25T06:02:52.735Z,2.70
2023-04-25T06:04:52.777Z,2.90
2023-04-25T06:05:52.598Z,2.80
2023-04-25T06:06:52.591Z,3.10
2023-04-25T06:07:52.600Z,3.10
2023-04-25T06:08:52.633Z,2.90
2023-04-25T06:09:52.534Z,2.80
2023-04-25T06:10:52.527Z,2.60
2023-04-25T06:11:52.534Z,2.90
2023-04-25T06:12:52.541Z,2.60
2023-04-25T06:13:52.957Z,2.90
2023-04-25T06:14:52.475Z,3.00
2023-04-25T06:15:52.522Z,2.60
2023-04-25T06:16:52.456Z,2.90
2023-04-25T06:17:52.556Z,2.60
2023-04-25T06:18:52.465Z,3.20
2023-04-25T06:19:52.508Z,2.70
2023-04-25T06:20:52.444Z,3.00
2023-04-25T06:21:52.404Z,2.60
2023-04-25T06:22:52.397Z,2.80
2023-04-25T06:23:52.580Z,3.10
2023-04-25T06:24:52.429Z,3.00
2023-04-25T06:25:52.417Z,2.60
2023-04-25T06:26:52.337Z,2.40
2023-04-25T06:27:52.349Z,2.80
2023-04-25T06:28:52.343Z,2.60
2023-04-25T06:29:52.338Z,2.50
2023-04-25T06:30:52.362Z,2.80
2023-04-25T06:31:52.331Z,2.50
2023-04-25T06:32:52.360Z,2.60
2023-04-25T06:33:52.643Z,2.80
2023-04-25T06:34:52.288Z,2.80
2023-04-25T06:35:52.288Z,3.30
2023-04-25T06:36:52.264Z,2.80
2023-04-25T06:37:52.258Z,2.80
2023-04-25T06:38:52.375Z,3.20
2023-04-25T06:39:52.224Z,2.90
2023-04-25T06:40:52.213Z,2.70
2023-04-25T06:41:52.240Z,2.80
2023-04-25T06:42:52.204Z,2.80
2023-04-25T06:43:52.183Z,2.70
2023-04-25T06:44:52.155Z,2.70
2023-04-25T06:45:52.277Z,2.50
2023-04-25T06:46:52.193Z,2.70
2023-04-25T06:47:52.201Z,2.60
2023-04-25T06:48:52.364Z,3.00
2023-04-25T06:49:52.151Z,2.80
2023-04-25T06:50:52.155Z,2.60
2023-04-25T06:51:52.096Z,2.30
2023-04-25T06:52:52.091Z,2.30
2023-04-25T06:53:52.087Z,2.60
2023-04-25T06:54:52.144Z,2.60
2023-04-25T06:55:52.094Z,2.20
2023-04-25T06:56:52.028Z,2.70
2023-04-25T06:57:52.099Z,2.50
2023-04-25T06:58:52.256Z,2.70
2023-04-25T06:59:52.049Z,2.50
2023-04-25T07:00:52.075Z,2.30
2023-04-25T07:01:52.064Z,2.60
2023-04-25T07:02:52.176Z,2.40
2023-04-25T07:03:53.015Z,2.60
2023-04-25T07:04:52.038Z,2.70
2023-04-25T07:05:51.995Z,2.50
2023-04-25T07:06:51.962Z,3.00
2023-04-25T07:07:51.965Z,2.60
2023-04-25T07:08:52.265Z,2.30
2023-04-25T07:09:51.899Z,2.20
2023-04-25T07:10:51.905Z,2.40
2023-04-25T07:11:51.913Z,2.50
2023-04-25T07:12:51.866Z,2.30
2023-04-25T07:13:51.860Z,2.80
2023-04-25T07:14:51.840Z,2.70
2023-04-25T07:15:51.840Z,2.50
2023-04-25T07:16:51.902Z,2.50
2023-04-25T07:17:51.872Z,2.60
2023-04-25T07:18:52.075Z,2.20
2023-04-25T07:19:51.815Z,2.40
2023-04-25T07:20:51.777Z,2.50
2023-04-25T07:21:54.071Z,2.50
2023-04-25T07:22:51.764Z,2.30
2023-04-25T07:23:51.803Z,2.50
2023-04-25T07:24:51.735Z,2.20
2023-04-25T07:25:51.807Z,2.30
2023-04-25T07:26:51.709Z,2.00
2023-04-25T07:27:51.703Z,2.40
2023-04-25T07:28:52.116Z,2.30
2023-04-25T07:29:51.731Z,2.80
2023-04-25T07:30:51.696Z,2.00
2023-04-25T07:31:51.785Z,2.50
2023-04-25T07:32:51.686Z,2.40
2023-04-25T07:33:51.628Z,2.30
2023-04-25T07:34:51.651Z,2.30
2023-04-25T07:35:51.727Z,2.60
2023-04-25T07:36:51.652Z,2.20
2023-04-25T07:37:51.594Z,2.30
2023-04-25T07:38:51.759Z,2.60
2023-04-25T07:39:51.592Z,2.40
2023-04-25T07:40:51.584Z,2.30
2023-04-25T07:41:53.765Z,2.30
2023-04-25T07:42:51.572Z,2.50
2023-04-25T07:43:51.535Z,2.70
2023-04-25T07:44:51.515Z,2.50
2023-04-25T07:45:51.596Z,2.50
2023-04-25T07:46:51.530Z,2.40
2023-04-25T07:47:51.526Z,2.50
2023-04-25T07:48:51.743Z,2.50
2023-04-25T07:49:51.527Z,2.00
2023-04-25T07:50:57.565Z,1.90
2023-04-25T07:51:57.686Z,2.20
2023-04-25T07:52:57.553Z,1.90
2023-04-25T07:53:51.439Z,2.10
2023-04-25T07:54:51.435Z,2.00
2023-04-25T07:55:51.436Z,1.90
2023-04-25T07:56:53.362Z,1.50
2023-04-25T07:57:51.384Z,2.30
2023-04-25T07:58:51.638Z,1.90
2023-04-25T07:59:51.382Z,1.80
2023-04-25T08:00:51.363Z,2.20
2023-04-25T08:01:51.330Z,2.00
2023-04-25T08:02:51.422Z,1.90
2023-04-25T08:03:51.448Z,2.10
2023-04-25T08:04:51.451Z,2.10
2023-04-25T08:05:51.460Z,2.30
2023-04-25T08:06:51.305Z,2.40
2023-04-25T08:07:51.312Z,2.50
2023-04-25T08:08:51.515Z,2.70
2023-04-25T08:09:51.268Z,2.50
2023-04-25T08:10:51.269Z,2.60
2023-04-25T08:11:51.248Z,2.30
2023-04-25T08:12:51.288Z,2.50
2023-04-25T08:13:51.223Z,2.50
2023-04-25T08:14:51.190Z,1.90
2023-04-25T08:15:51.392Z,2.10
2023-04-25T08:16:51.191Z,2.00
2023-04-25T08:17:51.246Z,1.90
2023-04-25T08:18:51.349Z,2.30
2023-04-25T08:19:51.219Z,1.80
2023-04-25T08:20:51.135Z,2.10
2023-04-25T08:21:51.240Z,1.70
2023-04-25T08:22:51.142Z,2.00
2023-04-25T08:23:51.195Z,2.00
2023-04-25T08:24:51.110Z,2.30
2023-04-25T08:25:51.129Z,2.40
2023-04-25T08:26:51.104Z,2.00
2023-04-25T08:27:51.053Z,2.30
2023-04-25T08:28:51.261Z,2.00
2023-04-25T08:29:51.070Z,2.10
2023-04-25T08:30:51.079Z,2.50
2023-04-25T08:31:51.030Z,2.40
2023-04-25T08:32:51.127Z,2.10
2023-04-25T08:33:51.002Z,2.30
2023-04-25T08:34:51.002Z,2.10
2023-04-25T08:35:50.980Z,2.40
2023-04-25T08:36:50.984Z,2.30
2023-04-25T08:37:50.945Z,2.30
2023-04-25T08:38:52.032Z,2.10
2023-04-25T08:39:50.938Z,2.20
2023-04-25T08:40:50.989Z,2.30
2023-04-25T08:41:50.913Z,2.60
2023-04-25T08:42:50.915Z,2.60
2023-04-25T08:43:50.874Z,2.90
2023-04-25T08:44:50.956Z,1.90
2023-04-25T08:45:50.871Z,2.20
2023-04-25T08:46:51.138Z,2.50
2023-04-25T08:47:50.945Z,2.40
2023-04-25T08:48:50.983Z,2.20
2023-04-25T08:49:50.859Z,2.10
2023-04-25T08:50:50.824Z,2.10
2023-04-25T08:51:50.809Z,2.20
2023-04-25T08:52:50.824Z,2.70
2023-04-25T08:54:50.783Z,2.10
2023-04-25T08:55:50.736Z,1.90
2023-04-25T08:56:50.749Z,2.20
2023-04-25T08:57:50.746Z,2.10
2023-04-25T08:58:51.039Z,2.10
2023-04-25T08:59:51.406Z,2.40
2023-04-25T09:00:50.846Z,2.30
2023-04-25T09:01:50.720Z,2.60
2023-04-25T09:02:50.946Z,2.10
2023-04-25T09:03:50.783Z,2.40
2023-04-25T09:04:50.649Z,2.20
2023-04-25T09:05:50.651Z,2.50
2023-04-25T09:06:50.674Z,2.50
2023-04-25T09:07:50.923Z,2.00
2023-04-25T09:08:50.624Z,2.30
2023-04-25T09:09:50.637Z,2.20
2023-04-25T09:10:50.613Z,2.00
2023-04-25T09:11:50.679Z,2.00
2023-04-25T09:12:50.575Z,2.40
2023-04-25T09:13:50.772Z,2.20
2023-04-25T09:14:50.544Z,2.00
2023-04-25T09:15:50.530Z,2.20
2023-04-25T09:16:50.624Z,2.30
2023-04-25T09:17:50.539Z,2.30
2023-04-25T09:18:50.528Z,2.20
2023-04-25T09:19:50.520Z,2.00
2023-04-25T09:21:50.572Z,2.00
2023-04-25T09:22:50.489Z,2.20
2023-04-25T09:23:50.753Z,2.00
2023-04-25T09:24:50.444Z,2.00
2023-04-25T09:25:50.449Z,2.30
2023-04-25T09:26:50.471Z,2.20
2023-04-25T09:27:50.406Z,2.10
2023-04-25T09:28:50.426Z,2.20
2023-04-25T09:29:50.418Z,2.30
2023-04-25T09:30:50.410Z,2.30
2023-04-25T09:31:50.392Z,2.10
2023-04-25T09:32:50.458Z,2.10
2023-04-25T09:33:51.418Z,2.00
2023-04-25T09:34:50.350Z,2.10
2023-04-25T09:35:50.375Z,2.50
2023-04-25T09:36:50.314Z,2.00
2023-04-25T09:37:50.294Z,1.80
2023-04-25T09:38:50.288Z,2.20
2023-04-25T09:39:50.294Z,2.20
2023-04-25T09:40:50.314Z,2.00
2023-04-25T09:41:50.282Z,2.10
2023-04-25T09:42:50.289Z,2.20
2023-04-25T09:43:50.260Z,1.80
2023-04-25T09:44:50.226Z,1.80
2023-04-25T09:45:50.284Z,2.00
2023-04-25T09:46:50.221Z,2.00
2023-04-25T09:47:50.264Z,2.10
2023-04-25T09:48:50.221Z,2.00
2023-04-25T09:49:50.192Z,2.30
2023-04-25T09:50:50.166Z,2.10
2023-04-25T09:51:50.164Z,2.00
2023-04-25T09:52:50.174Z,2.20
2023-04-25T09:53:50.513Z,1.90
2023-04-25T09:54:50.127Z,2.20
2023-04-25T09:55:50.106Z,1.80
2023-04-25T09:56:50.138Z,1.90
2023-04-25T09:57:50.090Z,2.00
2023-04-25T09:58:50.498Z,2.10
2023-04-25T09:59:50.097Z,2.00
2023-04-25T10:00:50.085Z,1.90
2023-04-25T10:01:50.099Z,2.20
2023-04-25T10:02:50.149Z,1.90
2023-04-25T10:03:50.058Z,2.20
2023-04-25T10:04:50.094Z,2.20
2023-04-25T10:05:50.061Z,2.00
2023-04-25T10:06:50.068Z,2.00
2023-04-25T10:07:50.005Z,2.10
2023-04-25T10:08:50.043Z,2.20
2023-04-25T10:09:49.988Z,2.30
2023-04-25T10:10:50.081Z,2.20
2023-04-25T10:11:49.992Z,2.00
2023-04-25T10:12:49.980Z,2.00
2023-04-25T10:13:50.128Z,2.00
2023-04-25T10:14:49.911Z,2.00
2023-04-25T10:15:49.943Z,1.90
2023-04-25T10:16:49.913Z,2.00
2023-04-25T10:17:49.979Z,2.30
2023-04-25T10:18:49.906Z,1.80
2023-04-25T10:19:49.882Z,2.20
2023-04-25T10:20:49.860Z,2.10
2023-04-25T10:21:49.896Z,2.50
2023-04-25T10:22:49.841Z,2.30
2023-04-25T10:24:49.827Z,2.50
2023-04-25T10:25:49.792Z,2.30
2023-04-25T10:26:49.797Z,2.20
2023-04-25T10:27:49.768Z,2.00
2023-04-25T10:28:49.802Z,2.30
2023-04-25T10:29:49.793Z,2.10
2023-04-25T10:30:50.043Z,2.30
2023-04-25T10:31:49.793Z,2.60
2023-04-25T10:32:49.757Z,2.20
2023-04-25T10:33:49.901Z,2.10
2023-04-25T10:34:49.720Z,2.40
2023-04-25T10:35:49.740Z,2.50
2023-04-25T10:36:49.705Z,2.40
2023-04-25T10:37:49.662Z,2.40
2023-04-25T10:38:49.654Z,2.40
2023-04-25T10:39:49.662Z,2.50
2023-04-25T10:40:49.659Z,2.60
2023-04-25T10:41:49.649Z,2.40
2023-04-25T10:42:49.646Z,2.30
2023-04-25T10:43:49.732Z,2.50
2023-04-25T10:44:49.602Z,2.30
2023-04-25T10:45:49.583Z,2.50
2023-04-25T10:46:49.632Z,2.30
2023-04-25T10:47:49.659Z,2.30
2023-04-25T10:48:49.598Z,2.50
2023-04-25T10:49:49.561Z,2.20
2023-04-25T10:50:49.571Z,2.40
2023-04-25T10:51:55.270Z,2.40
2023-04-25T10:52:49.531Z,2.40
2023-04-25T10:53:49.737Z,2.40
2023-04-25T10:54:49.581Z,2.70
2023-04-25T10:55:49.524Z,2.20
2023-04-25T10:56:49.499Z,2.40
2023-04-25T10:57:49.511Z,2.40
2023-04-25T10:58:51.307Z,2.50
2023-04-25T10:59:49.476Z,2.50
2023-04-25T11:01:49.498Z,2.80
2023-04-25T11:02:49.569Z,2.10
2023-04-25T11:03:49.543Z,2.20
2023-04-25T11:04:49.492Z,2.30
2023-04-25T11:05:57.921Z,2.50
2023-04-25T11:06:49.927Z,2.50
2023-04-25T11:08:00.045Z,2.40
2023-04-25T11:08:49.529Z,2.60
2023-04-25T11:09:49.346Z,2.30
2023-04-25T11:10:50.300Z,2.60
2023-04-25T11:11:49.338Z,2.30
2023-04-25T11:12:49.310Z,3.10
2023-04-25T11:13:49.316Z,2.80
2023-04-25T11:14:49.291Z,2.30
2023-04-25T11:15:55.028Z,2.30
2023-04-25T11:16:49.302Z,2.30
2023-04-25T11:17:49.359Z,2.20
2023-04-25T11:18:49.509Z,2.40
2023-04-25T11:19:49.218Z,2.20
2023-04-25T11:20:49.219Z,2.20
2023-04-25T11:21:49.196Z,2.40
2023-04-25T11:22:50.940Z,2.20
2023-04-25T11:23:49.271Z,2.40
2023-04-25T11:24:49.193Z,2.30
2023-04-25T11:25:49.150Z,2.20
2023-04-25T11:26:49.186Z,2.10
2023-04-25T11:27:49.131Z,1.90
2023-04-25T11:28:49.134Z,2.30
2023-04-25T11:29:49.142Z,2.20
2023-04-25T11:30:49.135Z,2.70
2023-04-25T11:31:49.148Z,2.40
2023-04-25T11:32:49.153Z,1.90
2023-04-25T11:33:49.222Z,2.30
2023-04-25T11:34:49.106Z,2.20
2023-04-25T11:35:49.078Z,2.10
2023-04-25T11:36:49.074Z,2.50
2023-04-25T11:37:49.088Z,2.20
2023-04-25T11:38:49.016Z,2.00
2023-04-25T11:39:49.159Z,2.00
2023-04-25T11:40:49.005Z,2.10
2023-04-25T11:41:49.033Z,1.90
2023-04-25T11:42:48.998Z,2.20
2023-04-25T11:43:48.979Z,2.10
2023-04-25T11:44:48.958Z,2.30
2023-04-25T11:45:49.008Z,1.90
2023-04-25T11:46:48.949Z,2.20
2023-04-25T11:47:48.955Z,2.00
2023-04-25T11:48:49.179Z,2.20
2023-04-25T11:49:48.919Z,2.10
2023-04-25T11:50:48.891Z,2.20
2023-04-25T11:51:48.908Z,1.90
2023-04-25T11:52:48.931Z,2.00
2023-04-25T11:53:48.884Z,2.10
2023-04-25T11:54:48.874Z,2.10
2023-04-25T11:55:48.851Z,2.30
2023-04-25T11:56:48.862Z,2.10
2023-04-25T11:57:48.825Z,2.00
2023-04-25T11:58:48.817Z,1.90
2023-04-25T11:59:48.800Z,2.00
2023-04-25T12:00:50.462Z,2.00
2023-04-25T12:01:48.809Z,2.00
2023-04-25T12:02:49.016Z,2.40
2023-04-25T12:03:48.989Z,2.20
2023-04-25T12:04:48.983Z,2.00
2023-04-25T12:05:49.095Z,2.10
2023-04-25T12:06:48.799Z,1.90
2023-04-25T12:07:48.758Z,2.10
2023-04-25T12:08:49.069Z,2.30
2023-04-25T12:09:48.720Z,2.20
2023-04-25T12:10:48.672Z,2.20
2023-04-25T12:11:48.668Z,2.00
2023-04-25T12:12:48.688Z,2.30
2023-04-25T12:13:48.685Z,1.90
2023-04-25T12:14:48.646Z,2.10
2023-04-25T12:15:48.773Z,2.40
2023-04-25T12:16:48.626Z,2.00
2023-04-25T12:17:48.685Z,1.90
2023-04-25T12:18:48.772Z,2.30
2023-04-25T12:19:48.594Z,2.10
2023-04-25T12:20:48.626Z,2.60
2023-04-25T12:22:48.558Z,2.30
2023-04-25T12:23:48.559Z,2.40
2023-04-25T12:24:48.553Z,2.10
2023-04-25T12:25:48.533Z,2.40
2023-04-25T12:26:48.511Z,2.50
2023-04-25T12:27:48.503Z,2.10
2023-04-25T12:28:48.665Z,2.40
2023-04-25T12:29:50.671Z,2.10
2023-04-25T12:30:48.465Z,2.20
2023-04-25T12:31:48.558Z,2.00
2023-04-25T12:32:48.569Z,2.40
2023-04-25T12:33:48.502Z,2.10
2023-04-25T12:34:48.429Z,2.60
2023-04-25T12:35:48.422Z,2.00
2023-04-25T12:36:48.441Z,2.40
2023-04-25T12:37:48.408Z,2.10
2023-04-25T12:38:48.391Z,2.40
2023-04-25T12:39:48.375Z,2.40
2023-04-25T12:40:48.371Z,2.00
2023-04-25T12:41:48.478Z,2.00
2023-04-25T12:42:48.364Z,2.50
2023-04-25T12:43:48.372Z,2.30
2023-04-25T12:44:48.303Z,2.40
2023-04-25T12:45:48.298Z,2.50
2023-04-25T12:46:48.353Z,2.40
2023-04-25T12:47:48.322Z,2.10
2023-04-25T12:48:48.596Z,2.20
2023-04-25T12:49:48.242Z,2.60
2023-04-25T12:50:48.237Z,2.20
2023-04-25T12:51:48.256Z,2.50
2023-04-25T12:52:48.275Z,2.60
2023-04-25T12:53:48.285Z,2.00
2023-04-25T12:54:48.214Z,2.30
2023-04-25T12:55:48.197Z,2.30
2023-04-25T12:56:48.181Z,2.40
2023-04-25T12:57:48.170Z,2.50
2023-04-25T12:58:48.200Z,2.70
2023-04-25T12:59:48.163Z,2.80
2023-04-25T13:00:48.161Z,2.10
2023-04-25T13:01:48.166Z,2.20
2023-04-25T13:02:48.255Z,2.40
2023-04-25T13:03:48.255Z,2.30
2023-04-25T13:04:48.245Z,2.30
2023-04-25T13:05:48.131Z,2.10
2023-04-25T13:06:48.108Z,2.60
2023-04-25T13:07:48.057Z,2.20
2023-04-25T13:08:48.035Z,2.10
2023-04-25T13:09:48.048Z,2.30
2023-04-25T13:10:48.047Z,2.10
2023-04-25T13:11:48.067Z,2.30
2023-04-25T13:12:48.071Z,2.20
2023-04-25T13:13:48.047Z,2.30
2023-04-25T13:14:47.980Z,2.10
2023-04-25T13:15:47.995Z,2.10
2023-04-25T13:16:48.029Z,2.40
2023-04-25T13:17:47.999Z,2.10
2023-04-25T13:18:47.936Z,2.30
2023-04-25T13:19:47.925Z,2.20
2023-04-25T13:20:47.933Z,2.40
2023-04-25T13:21:47.956Z,2.50
2023-04-25T13:22:47.920Z,2.50
2023-04-25T13:23:47.974Z,2.20
2023-04-25T13:24:47.894Z,2.10